sensor_id;sensor_type;location;lat;lon;timestamp;P1;durP1;ratioP1;P2;durP2;ratioP2
15936;SDS011;9163;48.818;8.976;2022-09-29T00:01:53;8.60;;;5.13;;
15936;SDS011;9163;48.818;8.976;2022-09-29T00:04:20;8.87;;;5.00;;
15936;SDS011;9163;48.818;8.976;2022-09-29T00:06:48;7.30;;;5.00;;
15936;SDS011;9163;48.818;8.976;2022-09-29T00:09:15;8.83;;;5.53;;
15936;SDS011;9163;48.818;8.976;2022-09-29T00:11:43;7.30;;;5.10;;
15936;SDS011;9163;48.818;8.976;2022-09-29T00:14:10;9.17;;;4.90;;
15936;SDS011;9163;48.818;8.976;2022-09-29T00:16:37;7.33;;;4.50;;
15936;SDS011;9163;48.818;8.976;2022-09-29T00:19:04;7.43;;;4.97;;
15936;SDS011;9163;48.818;8.976;2022-09-29T00:21:31;7.83;;;4.77;;
15936;SDS011;9163;48.818;8.976;2022-09-29T00:24:00;8.27;;;5.00;;
15936;SDS011;9163;48.818;8.976;2022-09-29T00:26:27;7.97;;;4.93;;
15936;SDS011;9163;48.818;8.976;2022-09-29T00:28:56;10.97;;;5.80;;
15936;SDS011;9163;48.818;8.976;2022-09-29T00:31:26;8.27;;;4.90;;
15936;SDS011;9163;48.818;8.976;2022-09-29T00:33:54;7.77;;;4.97;;
15936;SDS011;9163;48.818;8.976;2022-09-29T00:36:21;6.87;;;5.03;;
15936;SDS011;9163;48.818;8.976;2022-09-29T00:38:49;9.73;;;5.00;;
15936;SDS011;9163;48.818;8.976;2022-09-29T00:41:20;8.70;;;4.83;;
15936;SDS011;9163;48.818;8.976;2022-09-29T00:43:50;7.17;;;5.40;;
15936;SDS011;9163;48.818;8.976;2022-09-29T00:46:25;8.67;;;5.30;;
15936;SDS011;9163;48.818;8.976;2022-09-29T00:49:04;8.43;;;5.40;;
15936;SDS011;9163;48.818;8.976;2022-09-29T00:51:36;8.17;;;5.23;;
15936;SDS011;9163;48.818;8.976;2022-09-29T00:54:06;8.63;;;5.70;;
15936;SDS011;9163;48.818;8.976;2022-09-29T00:56:36;11.77;;;6.10;;
15936;SDS011;9163;48.818;8.976;2022-09-29T00:59:07;9.83;;;6.20;;
15936;SDS011;9163;48.818;8.976;2022-09-29T01:01:39;9.73;;;6.43;;
15936;SDS011;9163;48.818;8.976;2022-09-29T01:04:08;9.00;;;6.20;;
15936;SDS011;9163;48.818;8.976;2022-09-29T01:06:37;9.90;;;6.93;;
15936;SDS011;9163;48.818;8.976;2022-09-29T01:09:07;10.53;;;6.53;;
15936;SDS011;9163;48.818;8.976;2022-09-29T01:11:38;10.87;;;6.50;;
15936;SDS011;9163;48.818;8.976;2022-09-29T01:14:07;10.47;;;6.43;;
15936;SDS011;9163;48.818;8.976;2022-09-29T01:16:36;9.80;;;6.67;;
15936;SDS011;9163;48.818;8.976;2022-09-29T01:19:06;10.13;;;6.73;;
15936;SDS011;9163;48.818;8.976;2022-09-29T01:21:40;9.93;;;6.90;;
15936;SDS011;9163;48.818;8.976;2022-09-29T01:24:39;10.10;;;7.10;;
15936;SDS011;9163;48.818;8.976;2022-09-29T01:27:25;8.97;;;7.37;;
15936;SDS011;9163;48.818;8.976;2022-09-29T01:30:08;10.53;;;6.77;;
15936;SDS011;9163;48.818;8.976;2022-09-29T01:32:53;10.87;;;6.93;;
15936;SDS011;9163;48.818;8.976;2022-09-29T01:35:47;10.37;;;7.00;;
15936;SDS011;9163;48.818;8.976;2022-09-29T01:38:26;11.57;;;6.70;;
15936;SDS011;9163;48.818;8.976;2022-09-29T01:41:06;8.30;;;6.77;;
15936;SDS011;9163;48.818;8.976;2022-09-29T01:43:39;11.47;;;6.77;;
15936;SDS011;9163;48.818;8.976;2022-09-29T01:46:13;9.10;;;6.87;;
15936;SDS011;9163;48.818;8.976;2022-09-29T01:48:49;10.50;;;6.67;;
15936;SDS011;9163;48.818;8.976;2022-09-29T01:51:20;10.67;;;6.97;;
15936;SDS011;9163;48.818;8.976;2022-09-29T01:53:50;11.47;;;6.80;;
15936;SDS011;9163;48.818;8.976;2022-09-29T01:56:22;9.70;;;6.73;;
15936;SDS011;9163;48.818;8.976;2022-09-29T01:58:54;9.47;;;6.43;;
15936;SDS011;9163;48.818;8.976;2022-09-29T02:01:26;10.40;;;6.80;;
15936;SDS011;9163;48.818;8.976;2022-09-29T02:04:00;7.70;;;6.37;;
15936;SDS011;9163;48.818;8.976;2022-09-29T02:06:32;9.47;;;6.43;;
15936;SDS011;9163;48.818;8.976;2022-09-29T02:09:07;9.43;;;6.53;;
15936;SDS011;9163;48.818;8.976;2022-09-29T02:11:38;8.30;;;6.07;;
15936;SDS011;9163;48.818;8.976;2022-09-29T02:14:10;11.63;;;6.53;;
15936;SDS011;9163;48.818;8.976;2022-09-29T02:16:41;9.37;;;6.87;;
15936;SDS011;9163;48.818;8.976;2022-09-29T02:19:14;9.57;;;6.37;;
15936;SDS011;9163;48.818;8.976;2022-09-29T02:21:44;8.33;;;6.10;;
15936;SDS011;9163;48.818;8.976;2022-09-29T02:24:12;9.80;;;6.27;;
15936;SDS011;9163;48.818;8.976;2022-09-29T02:26:40;8.43;;;6.30;;
15936;SDS011;9163;48.818;8.976;2022-09-29T02:29:07;8.87;;;6.53;;
15936;SDS011;9163;48.818;8.976;2022-09-29T02:31:35;9.43;;;6.33;;
15936;SDS011;9163;48.818;8.976;2022-09-29T02:34:04;9.47;;;6.07;;
15936;SDS011;9163;48.818;8.976;2022-09-29T02:36:37;6.73;;;5.50;;
15936;SDS011;9163;48.818;8.976;2022-09-29T02:39:09;7.70;;;6.33;;
15936;SDS011;9163;48.818;8.976;2022-09-29T02:41:49;8.80;;;5.97;;
15936;SDS011;9163;48.818;8.976;2022-09-29T02:44:24;12.33;;;6.27;;
15936;SDS011;9163;48.818;8.976;2022-09-29T02:47:25;8.77;;;5.57;;
15936;SDS011;9163;48.818;8.976;2022-09-29T02:50:18;9.70;;;6.63;;
15936;SDS011;9163;48.818;8.976;2022-09-29T02:52:57;7.33;;;6.07;;
15936;SDS011;9163;48.818;8.976;2022-09-29T02:55:32;8.70;;;5.80;;
15936;SDS011;9163;48.818;8.976;2022-09-29T02:58:08;7.30;;;5.47;;
15936;SDS011;9163;48.818;8.976;2022-09-29T03:00:40;8.93;;;5.80;;
15936;SDS011;9163;48.818;8.976;2022-09-29T03:03:08;7.77;;;5.73;;
15936;SDS011;9163;48.818;8.976;2022-09-29T03:05:36;8.57;;;5.77;;
15936;SDS011;9163;48.818;8.976;2022-09-29T03:08:04;7.20;;;5.10;;
15936;SDS011;9163;48.818;8.976;2022-09-29T03:10:31;6.70;;;5.67;;
15936;SDS011;9163;48.818;8.976;2022-09-29T03:12:58;7.43;;;5.70;;
15936;SDS011;9163;48.818;8.976;2022-09-29T03:15:26;8.80;;;5.93;;
15936;SDS011;9163;48.818;8.976;2022-09-29T03:17:54;8.30;;;6.00;;
15936;SDS011;9163;48.818;8.976;2022-09-29T03:20:22;10.03;;;5.73;;
15936;SDS011;9163;48.818;8.976;2022-09-29T03:22:50;8.47;;;5.90;;
15936;SDS011;9163;48.818;8.976;2022-09-29T03:25:23;10.73;;;6.07;;
15936;SDS011;9163;48.818;8.976;2022-09-29T03:27:50;9.40;;;5.97;;
15936;SDS011;9163;48.818;8.976;2022-09-29T03:30:17;9.77;;;6.00;;
15936;SDS011;9163;48.818;8.976;2022-09-29T03:32:45;8.53;;;5.70;;
15936;SDS011;9163;48.818;8.976;2022-09-29T03:35:12;9.67;;;5.57;;
15936;SDS011;9163;48.818;8.976;2022-09-29T03:37:39;6.53;;;5.67;;
15936;SDS011;9163;48.818;8.976;2022-09-29T03:40:07;7.73;;;5.67;;
15936;SDS011;9163;48.818;8.976;2022-09-29T03:42:36;10.23;;;5.40;;
15936;SDS011;9163;48.818;8.976;2022-09-29T03:45:04;9.43;;;6.23;;
15936;SDS011;9163;48.818;8.976;2022-09-29T03:47:32;8.63;;;5.87;;
15936;SDS011;9163;48.818;8.976;2022-09-29T03:49:59;9.47;;;5.93;;
15936;SDS011;9163;48.818;8.976;2022-09-29T03:52:26;8.50;;;5.87;;
15936;SDS011;9163;48.818;8.976;2022-09-29T03:54:53;9.87;;;5.10;;
15936;SDS011;9163;48.818;8.976;2022-09-29T03:57:20;7.70;;;4.90;;
15936;SDS011;9163;48.818;8.976;2022-09-29T03:59:49;7.23;;;5.47;;
15936;SDS011;9163;48.818;8.976;2022-09-29T04:02:17;6.80;;;4.87;;
15936;SDS011;9163;48.818;8.976;2022-09-29T04:04:45;7.87;;;4.97;;
15936;SDS011;9163;48.818;8.976;2022-09-29T04:07:12;8.20;;;5.17;;
15936;SDS011;9163;48.818;8.976;2022-09-29T04:09:39;7.30;;;5.80;;
15936;SDS011;9163;48.818;8.976;2022-09-29T04:12:07;8.47;;;5.67;;
15936;SDS011;9163;48.818;8.976;2022-09-29T04:14:34;9.37;;;6.07;;
15936;SDS011;9163;48.818;8.976;2022-09-29T04:17:03;7.83;;;5.83;;
15936;SDS011;9163;48.818;8.976;2022-09-29T04:19:30;9.67;;;6.73;;
15936;SDS011;9163;48.818;8.976;2022-09-29T04:21:57;8.30;;;6.00;;
15936;SDS011;9163;48.818;8.976;2022-09-29T04:24:24;9.17;;;6.30;;
15936;SDS011;9163;48.818;8.976;2022-09-29T04:26:51;9.67;;;6.03;;
15936;SDS011;9163;48.818;8.976;2022-09-29T04:29:18;9.83;;;6.67;;
15936;SDS011;9163;48.818;8.976;2022-09-29T04:31:45;8.67;;;6.23;;
15936;SDS011;9163;48.818;8.976;2022-09-29T04:34:14;7.30;;;5.70;;
15936;SDS011;9163;48.818;8.976;2022-09-29T04:36:41;9.40;;;6.10;;
15936;SDS011;9163;48.818;8.976;2022-09-29T04:39:08;8.63;;;6.30;;
15936;SDS011;9163;48.818;8.976;2022-09-29T04:41:35;9.83;;;6.83;;
15936;SDS011;9163;48.818;8.976;2022-09-29T04:44:04;13.70;;;7.23;;
15936;SDS011;9163;48.818;8.976;2022-09-29T04:46:31;18.90;;;13.20;;
15936;SDS011;9163;48.818;8.976;2022-09-29T04:48:58;24.83;;;22.27;;
15936;SDS011;9163;48.818;8.976;2022-09-29T04:51:27;11.40;;;10.23;;
15936;SDS011;9163;48.818;8.976;2022-09-29T04:53:54;12.73;;;10.57;;
15936;SDS011;9163;48.818;8.976;2022-09-29T04:56:23;13.80;;;10.73;;
15936;SDS011;9163;48.818;8.976;2022-09-29T04:58:55;10.43;;;7.90;;
15936;SDS011;9163;48.818;8.976;2022-09-29T05:01:23;12.97;;;8.43;;
15936;SDS011;9163;48.818;8.976;2022-09-29T05:03:51;10.03;;;8.47;;
15936;SDS011;9163;48.818;8.976;2022-09-29T05:06:18;11.57;;;8.20;;
15936;SDS011;9163;48.818;8.976;2022-09-29T05:08:47;11.10;;;8.23;;
15936;SDS011;9163;48.818;8.976;2022-09-29T05:11:14;12.00;;;7.90;;
15936;SDS011;9163;48.818;8.976;2022-09-29T05:13:41;12.80;;;7.57;;
15936;SDS011;9163;48.818;8.976;2022-09-29T05:16:08;11.13;;;8.40;;
15936;SDS011;9163;48.818;8.976;2022-09-29T05:18:36;11.53;;;7.97;;
15936;SDS011;9163;48.818;8.976;2022-09-29T05:21:03;10.40;;;7.37;;
15936;SDS011;9163;48.818;8.976;2022-09-29T05:23:31;12.73;;;7.80;;
15936;SDS011;9163;48.818;8.976;2022-09-29T05:26:01;14.07;;;8.07;;
15936;SDS011;9163;48.818;8.976;2022-09-29T05:28:29;9.90;;;7.67;;
15936;SDS011;9163;48.818;8.976;2022-09-29T05:31:01;12.27;;;7.20;;
15936;SDS011;9163;48.818;8.976;2022-09-29T05:33:29;10.53;;;7.33;;
15936;SDS011;9163;48.818;8.976;2022-09-29T05:35:57;12.07;;;7.73;;
15936;SDS011;9163;48.818;8.976;2022-09-29T05:38:24;9.57;;;7.83;;
15936;SDS011;9163;48.818;8.976;2022-09-29T05:40:51;12.37;;;8.30;;
15936;SDS011;9163;48.818;8.976;2022-09-29T05:43:22;15.73;;;9.00;;
15936;SDS011;9163;48.818;8.976;2022-09-29T05:45:49;11.97;;;8.60;;
15936;SDS011;9163;48.818;8.976;2022-09-29T05:48:17;10.90;;;8.70;;
15936;SDS011;9163;48.818;8.976;2022-09-29T05:50:44;12.80;;;8.73;;
15936;SDS011;9163;48.818;8.976;2022-09-29T05:53:11;13.00;;;8.53;;
15936;SDS011;9163;48.818;8.976;2022-09-29T05:55:38;12.80;;;8.13;;
15936;SDS011;9163;48.818;8.976;2022-09-29T05:58:05;11.67;;;8.37;;
15936;SDS011;9163;48.818;8.976;2022-09-29T06:00:34;10.23;;;8.17;;
15936;SDS011;9163;48.818;8.976;2022-09-29T06:03:01;12.43;;;8.13;;
15936;SDS011;9163;48.818;8.976;2022-09-29T06:05:29;10.43;;;7.80;;
15936;SDS011;9163;48.818;8.976;2022-09-29T06:07:56;10.13;;;7.73;;
15936;SDS011;9163;48.818;8.976;2022-09-29T06:10:28;11.00;;;7.73;;
15936;SDS011;9163;48.818;8.976;2022-09-29T06:12:55;9.73;;;7.83;;
15936;SDS011;9163;48.818;8.976;2022-09-29T06:15:24;10.30;;;7.87;;
15936;SDS011;9163;48.818;8.976;2022-09-29T06:17:55;10.37;;;7.50;;
15936;SDS011;9163;48.818;8.976;2022-09-29T06:20:22;11.43;;;7.67;;
15936;SDS011;9163;48.818;8.976;2022-09-29T06:22:50;11.67;;;8.47;;
15936;SDS011;9163;48.818;8.976;2022-09-29T06:25:19;11.17;;;8.13;;
15936;SDS011;9163;48.818;8.976;2022-09-29T06:27:46;11.83;;;8.97;;
15936;SDS011;9163;48.818;8.976;2022-09-29T06:30:14;19.40;;;14.37;;
15936;SDS011;9163;48.818;8.976;2022-09-29T06:32:41;20.20;;;13.47;;
15936;SDS011;9163;48.818;8.976;2022-09-29T06:35:10;17.80;;;11.43;;
15936;SDS011;9163;48.818;8.976;2022-09-29T06:37:54;22.07;;;14.23;;
15936;SDS011;9163;48.818;8.976;2022-09-29T06:40:22;15.03;;;11.43;;
15936;SDS011;9163;48.818;8.976;2022-09-29T06:42:51;16.67;;;12.60;;
15936;SDS011;9163;48.818;8.976;2022-09-29T06:45:18;14.30;;;10.37;;
15936;SDS011;9163;48.818;8.976;2022-09-29T06:47:45;14.60;;;9.30;;
15936;SDS011;9163;48.818;8.976;2022-09-29T06:50:14;12.83;;;8.73;;
15936;SDS011;9163;48.818;8.976;2022-09-29T06:52:41;14.00;;;8.43;;
15936;SDS011;9163;48.818;8.976;2022-09-29T06:55:08;10.90;;;8.17;;
15936;SDS011;9163;48.818;8.976;2022-09-29T06:57:36;10.90;;;7.83;;
15936;SDS011;9163;48.818;8.976;2022-09-29T07:00:05;12.90;;;8.20;;
15936;SDS011;9163;48.818;8.976;2022-09-29T07:02:33;11.43;;;8.03;;
15936;SDS011;9163;48.818;8.976;2022-09-29T07:05:00;11.10;;;7.30;;
15936;SDS011;9163;48.818;8.976;2022-09-29T07:07:29;9.00;;;6.27;;
15936;SDS011;9163;48.818;8.976;2022-09-29T07:09:56;10.03;;;6.37;;
15936;SDS011;9163;48.818;8.976;2022-09-29T07:12:23;10.13;;;6.73;;
15936;SDS011;9163;48.818;8.976;2022-09-29T07:14:50;8.83;;;5.97;;
15936;SDS011;9163;48.818;8.976;2022-09-29T07:17:17;12.70;;;8.20;;
15936;SDS011;9163;48.818;8.976;2022-09-29T07:19:44;10.80;;;6.70;;
15936;SDS011;9163;48.818;8.976;2022-09-29T07:22:11;13.47;;;6.70;;
15936;SDS011;9163;48.818;8.976;2022-09-29T07:24:40;10.60;;;6.43;;
15936;SDS011;9163;48.818;8.976;2022-09-29T07:27:08;8.77;;;6.10;;
15936;SDS011;9163;48.818;8.976;2022-09-29T07:29:35;6.97;;;6.03;;
15936;SDS011;9163;48.818;8.976;2022-09-29T07:32:02;11.80;;;9.10;;
15936;SDS011;9163;48.818;8.976;2022-09-29T07:34:29;9.07;;;7.13;;
15936;SDS011;9163;48.818;8.976;2022-09-29T07:36:56;9.27;;;6.67;;
15936;SDS011;9163;48.818;8.976;2022-09-29T07:39:24;8.70;;;6.10;;
15936;SDS011;9163;48.818;8.976;2022-09-29T07:41:52;6.30;;;5.00;;
15936;SDS011;9163;48.818;8.976;2022-09-29T07:44:20;7.07;;;5.00;;
15936;SDS011;9163;48.818;8.976;2022-09-29T07:46:47;5.90;;;4.40;;
15936;SDS011;9163;48.818;8.976;2022-09-29T07:49:15;5.57;;;4.00;;
15936;SDS011;9163;48.818;8.976;2022-09-29T07:51:45;8.77;;;5.70;;
15936;SDS011;9163;48.818;8.976;2022-09-29T07:54:12;7.27;;;5.70;;
15936;SDS011;9163;48.818;8.976;2022-09-29T07:56:39;7.20;;;5.60;;
15936;SDS011;9163;48.818;8.976;2022-09-29T07:59:09;6.83;;;4.63;;
15936;SDS011;9163;48.818;8.976;2022-09-29T08:01:37;7.43;;;5.60;;
15936;SDS011;9163;48.818;8.976;2022-09-29T08:04:04;7.30;;;4.60;;
15936;SDS011;9163;48.818;8.976;2022-09-29T08:06:31;7.73;;;4.87;;
15936;SDS011;9163;48.818;8.976;2022-09-29T08:08:59;5.40;;;4.80;;
15936;SDS011;9163;48.818;8.976;2022-09-29T08:11:27;7.10;;;4.60;;
15936;SDS011;9163;48.818;8.976;2022-09-29T08:13:54;6.10;;;4.10;;
15936;SDS011;9163;48.818;8.976;2022-09-29T08:16:23;7.10;;;4.40;;
15936;SDS011;9163;48.818;8.976;2022-09-29T08:18:50;5.97;;;3.90;;
15936;SDS011;9163;48.818;8.976;2022-09-29T08:21:17;8.03;;;4.10;;
15936;SDS011;9163;48.818;8.976;2022-09-29T08:23:44;5.53;;;3.90;;
15936;SDS011;9163;48.818;8.976;2022-09-29T08:26:12;6.77;;;4.10;;
15936;SDS011;9163;48.818;8.976;2022-09-29T08:28:41;5.53;;;4.47;;
15936;SDS011;9163;48.818;8.976;2022-09-29T08:31:10;9.63;;;4.90;;
15936;SDS011;9163;48.818;8.976;2022-09-29T08:33:40;9.33;;;4.90;;
15936;SDS011;9163;48.818;8.976;2022-09-29T08:36:08;5.90;;;4.50;;
15936;SDS011;9163;48.818;8.976;2022-09-29T08:38:40;6.00;;;3.40;;
15936;SDS011;9163;48.818;8.976;2022-09-29T08:41:15;5.00;;;4.03;;
15936;SDS011;9163;48.818;8.976;2022-09-29T08:43:52;4.77;;;3.60;;
15936;SDS011;9163;48.818;8.976;2022-09-29T08:46:24;5.10;;;2.80;;
15936;SDS011;9163;48.818;8.976;2022-09-29T08:48:57;5.43;;;2.60;;
15936;SDS011;9163;48.818;8.976;2022-09-29T08:51:29;4.00;;;2.30;;
15936;SDS011;9163;48.818;8.976;2022-09-29T08:53:59;4.50;;;2.20;;
15936;SDS011;9163;48.818;8.976;2022-09-29T08:56:39;3.77;;;2.20;;
15936;SDS011;9163;48.818;8.976;2022-09-29T08:59:07;2.40;;;2.00;;
15936;SDS011;9163;48.818;8.976;2022-09-29T09:01:37;5.13;;;2.30;;
15936;SDS011;9163;48.818;8.976;2022-09-29T09:07:19;4.00;;;2.23;;
15936;SDS011;9163;48.818;8.976;2022-09-29T09:09:57;3.30;;;2.43;;
15936;SDS011;9163;48.818;8.976;2022-09-29T09:15:48;4.20;;;2.67;;
15936;SDS011;9163;48.818;8.976;2022-09-29T09:21:24;6.27;;;3.33;;
15936;SDS011;9163;48.818;8.976;2022-09-29T09:24:00;5.33;;;3.00;;
15936;SDS011;9163;48.818;8.976;2022-09-29T09:26:35;4.70;;;2.40;;
15936;SDS011;9163;48.818;8.976;2022-09-29T09:29:08;2.97;;;2.30;;
15936;SDS011;9163;48.818;8.976;2022-09-29T09:31:41;4.53;;;2.60;;
15936;SDS011;9163;48.818;8.976;2022-09-29T09:34:13;6.00;;;2.50;;
15936;SDS011;9163;48.818;8.976;2022-09-29T09:36:48;4.03;;;2.00;;
15936;SDS011;9163;48.818;8.976;2022-09-29T09:39:20;6.30;;;2.27;;
15936;SDS011;9163;48.818;8.976;2022-09-29T09:41:54;4.40;;;2.17;;
15936;SDS011;9163;48.818;8.976;2022-09-29T09:44:25;6.40;;;2.70;;
15936;SDS011;9163;48.818;8.976;2022-09-29T09:47:00;5.67;;;2.60;;
15936;SDS011;9163;48.818;8.976;2022-09-29T09:49:31;4.87;;;2.93;;
15936;SDS011;9163;48.818;8.976;2022-09-29T09:52:13;6.07;;;3.00;;
15936;SDS011;9163;48.818;8.976;2022-09-29T09:54:47;4.40;;;2.63;;
15936;SDS011;9163;48.818;8.976;2022-09-29T09:57:21;5.40;;;2.77;;
15936;SDS011;9163;48.818;8.976;2022-09-29T10:00:06;5.47;;;2.70;;
15936;SDS011;9163;48.818;8.976;2022-09-29T10:02:41;4.93;;;2.50;;
15936;SDS011;9163;48.818;8.976;2022-09-29T10:05:12;5.83;;;3.40;;
15936;SDS011;9163;48.818;8.976;2022-09-29T10:07:43;4.97;;;2.87;;
15936;SDS011;9163;48.818;8.976;2022-09-29T10:10:14;5.00;;;2.80;;
15936;SDS011;9163;48.818;8.976;2022-09-29T10:12:44;3.50;;;2.23;;
15936;SDS011;9163;48.818;8.976;2022-09-29T10:15:14;4.37;;;2.40;;
15936;SDS011;9163;48.818;8.976;2022-09-29T10:17:47;3.93;;;2.50;;
15936;SDS011;9163;48.818;8.976;2022-09-29T10:20:28;5.10;;;2.47;;
15936;SDS011;9163;48.818;8.976;2022-09-29T10:23:23;4.40;;;2.53;;
15936;SDS011;9163;48.818;8.976;2022-09-29T10:25:52;8.20;;;2.40;;
15936;SDS011;9163;48.818;8.976;2022-09-29T10:28:25;5.43;;;2.67;;
15936;SDS011;9163;48.818;8.976;2022-09-29T10:30:55;5.97;;;2.80;;
15936;SDS011;9163;48.818;8.976;2022-09-29T10:33:23;6.00;;;2.50;;
15936;SDS011;9163;48.818;8.976;2022-09-29T10:36:02;4.23;;;2.30;;
15936;SDS011;9163;48.818;8.976;2022-09-29T10:38:34;6.80;;;2.40;;
15936;SDS011;9163;48.818;8.976;2022-09-29T10:41:03;3.03;;;2.13;;
15936;SDS011;9163;48.818;8.976;2022-09-29T10:43:34;4.77;;;2.40;;
15936;SDS011;9163;48.818;8.976;2022-09-29T10:46:02;5.17;;;4.03;;
15936;SDS011;9163;48.818;8.976;2022-09-29T10:48:30;4.60;;;2.10;;
15936;SDS011;9163;48.818;8.976;2022-09-29T10:50:59;3.73;;;2.10;;
15936;SDS011;9163;48.818;8.976;2022-09-29T10:53:31;4.93;;;2.30;;
15936;SDS011;9163;48.818;8.976;2022-09-29T10:56:06;4.83;;;2.20;;
15936;SDS011;9163;48.818;8.976;2022-09-29T10:58:42;5.80;;;2.50;;
15936;SDS011;9163;48.818;8.976;2022-09-29T11:01:14;5.43;;;1.73;;
15936;SDS011;9163;48.818;8.976;2022-09-29T11:03:45;3.43;;;2.30;;
15936;SDS011;9163;48.818;8.976;2022-09-29T11:06:15;7.17;;;2.47;;
15936;SDS011;9163;48.818;8.976;2022-09-29T11:08:57;3.97;;;2.40;;
15936;SDS011;9163;48.818;8.976;2022-09-29T11:11:26;2.60;;;2.33;;
15936;SDS011;9163;48.818;8.976;2022-09-29T11:13:56;2.73;;;2.47;;
15936;SDS011;9163;48.818;8.976;2022-09-29T11:16:28;6.73;;;2.27;;
15936;SDS011;9163;48.818;8.976;2022-09-29T11:18:58;3.27;;;2.10;;
15936;SDS011;9163;48.818;8.976;2022-09-29T11:24:34;4.13;;;2.00;;
15936;SDS011;9163;48.818;8.976;2022-09-29T11:27:30;3.23;;;1.93;;
15936;SDS011;9163;48.818;8.976;2022-09-29T11:30:06;2.73;;;1.90;;
15936;SDS011;9163;48.818;8.976;2022-09-29T11:32:41;4.30;;;2.07;;
15936;SDS011;9163;48.818;8.976;2022-09-29T11:35:22;5.17;;;2.33;;
15936;SDS011;9163;48.818;8.976;2022-09-29T11:38:02;4.07;;;1.90;;
15936;SDS011;9163;48.818;8.976;2022-09-29T11:40:45;3.73;;;1.93;;
15936;SDS011;9163;48.818;8.976;2022-09-29T11:43:27;5.63;;;2.10;;
15936;SDS011;9163;48.818;8.976;2022-09-29T11:46:06;4.07;;;2.60;;
15936;SDS011;9163;48.818;8.976;2022-09-29T11:48:51;3.97;;;2.30;;
15936;SDS011;9163;48.818;8.976;2022-09-29T11:51:43;4.47;;;2.10;;
15936;SDS011;9163;48.818;8.976;2022-09-29T11:54:43;3.17;;;2.00;;
15936;SDS011;9163;48.818;8.976;2022-09-29T11:57:28;3.43;;;2.23;;
15936;SDS011;9163;48.818;8.976;2022-09-29T12:00:09;6.17;;;2.30;;
15936;SDS011;9163;48.818;8.976;2022-09-29T12:05:37;3.77;;;1.83;;
15936;SDS011;9163;48.818;8.976;2022-09-29T12:08:17;4.40;;;2.30;;
15936;SDS011;9163;48.818;8.976;2022-09-29T12:10:54;4.93;;;2.00;;
15936;SDS011;9163;48.818;8.976;2022-09-29T12:13:32;3.60;;;1.97;;
15936;SDS011;9163;48.818;8.976;2022-09-29T12:16:10;5.23;;;1.90;;
15936;SDS011;9163;48.818;8.976;2022-09-29T12:18:40;4.57;;;1.77;;
15936;SDS011;9163;48.818;8.976;2022-09-29T12:21:12;3.50;;;1.67;;
15936;SDS011;9163;48.818;8.976;2022-09-29T12:23:43;4.00;;;1.60;;
15936;SDS011;9163;48.818;8.976;2022-09-29T12:26:13;5.87;;;1.70;;
15936;SDS011;9163;48.818;8.976;2022-09-29T12:28:46;3.57;;;1.80;;
15936;SDS011;9163;48.818;8.976;2022-09-29T12:31:19;3.47;;;1.67;;
15936;SDS011;9163;48.818;8.976;2022-09-29T12:33:51;5.53;;;1.70;;
15936;SDS011;9163;48.818;8.976;2022-09-29T12:36:30;4.57;;;1.53;;
15936;SDS011;9163;48.818;8.976;2022-09-29T12:39:16;3.13;;;1.60;;
15936;SDS011;9163;48.818;8.976;2022-09-29T12:41:51;3.73;;;1.70;;
15936;SDS011;9163;48.818;8.976;2022-09-29T12:44:25;2.77;;;1.50;;
15936;SDS011;9163;48.818;8.976;2022-09-29T12:46:58;2.93;;;1.57;;
15936;SDS011;9163;48.818;8.976;2022-09-29T12:49:32;3.00;;;1.50;;
15936;SDS011;9163;48.818;8.976;2022-09-29T12:52:08;4.37;;;1.57;;
15936;SDS011;9163;48.818;8.976;2022-09-29T12:54:41;4.47;;;1.63;;
15936;SDS011;9163;48.818;8.976;2022-09-29T12:57:14;5.10;;;1.77;;
15936;SDS011;9163;48.818;8.976;2022-09-29T12:59:48;2.37;;;1.60;;
15936;SDS011;9163;48.818;8.976;2022-09-29T13:02:35;2.87;;;1.50;;
15936;SDS011;9163;48.818;8.976;2022-09-29T13:05:32;5.43;;;1.80;;
15936;SDS011;9163;48.818;8.976;2022-09-29T13:08:41;4.13;;;1.80;;
15936;SDS011;9163;48.818;8.976;2022-09-29T13:11:38;2.90;;;1.70;;
15936;SDS011;9163;48.818;8.976;2022-09-29T13:14:20;5.60;;;1.87;;
15936;SDS011;9163;48.818;8.976;2022-09-29T13:17:05;4.50;;;1.70;;
15936;SDS011;9163;48.818;8.976;2022-09-29T13:19:48;3.03;;;1.60;;
15936;SDS011;9163;48.818;8.976;2022-09-29T13:25:29;2.10;;;1.37;;
15936;SDS011;9163;48.818;8.976;2022-09-29T13:28:09;3.97;;;1.40;;
15936;SDS011;9163;48.818;8.976;2022-09-29T13:30:48;3.40;;;1.73;;
15936;SDS011;9163;48.818;8.976;2022-09-29T13:33:18;5.37;;;1.63;;
15936;SDS011;9163;48.818;8.976;2022-09-29T13:35:48;6.27;;;1.60;;
15936;SDS011;9163;48.818;8.976;2022-09-29T13:38:17;4.70;;;1.87;;
15936;SDS011;9163;48.818;8.976;2022-09-29T13:43:37;5.17;;;1.67;;
15936;SDS011;9163;48.818;8.976;2022-09-29T13:49:10;6.10;;;1.60;;
15936;SDS011;9163;48.818;8.976;2022-09-29T13:51:41;4.43;;;1.40;;
15936;SDS011;9163;48.818;8.976;2022-09-29T13:54:22;6.63;;;1.73;;
15936;SDS011;9163;48.818;8.976;2022-09-29T13:57:07;4.83;;;1.60;;
15936;SDS011;9163;48.818;8.976;2022-09-29T13:59:59;6.53;;;1.70;;
15936;SDS011;9163;48.818;8.976;2022-09-29T14:03:16;5.57;;;1.60;;
15936;SDS011;9163;48.818;8.976;2022-09-29T14:05:54;5.90;;;1.63;;
15936;SDS011;9163;48.818;8.976;2022-09-29T14:08:28;7.40;;;1.80;;
15936;SDS011;9163;48.818;8.976;2022-09-29T14:11:02;7.13;;;1.90;;
15936;SDS011;9163;48.818;8.976;2022-09-29T14:13:40;8.87;;;2.03;;
15936;SDS011;9163;48.818;8.976;2022-09-29T14:16:17;6.17;;;2.00;;
15936;SDS011;9163;48.818;8.976;2022-09-29T14:18:53;3.57;;;1.77;;
15936;SDS011;9163;48.818;8.976;2022-09-29T14:21:47;4.10;;;1.93;;
15936;SDS011;9163;48.818;8.976;2022-09-29T14:27:18;5.20;;;2.10;;
15936;SDS011;9163;48.818;8.976;2022-09-29T14:29:54;6.57;;;1.80;;
15936;SDS011;9163;48.818;8.976;2022-09-29T14:32:31;5.53;;;1.90;;
15936;SDS011;9163;48.818;8.976;2022-09-29T14:35:12;4.97;;;2.00;;
15936;SDS011;9163;48.818;8.976;2022-09-29T14:37:44;7.77;;;2.00;;
15936;SDS011;9163;48.818;8.976;2022-09-29T14:40:15;5.30;;;1.70;;
15936;SDS011;9163;48.818;8.976;2022-09-29T14:43:02;3.23;;;1.47;;
15936;SDS011;9163;48.818;8.976;2022-09-29T14:45:38;4.90;;;1.60;;
15936;SDS011;9163;48.818;8.976;2022-09-29T14:48:32;4.10;;;1.67;;
15936;SDS011;9163;48.818;8.976;2022-09-29T14:51:29;3.67;;;1.60;;
15936;SDS011;9163;48.818;8.976;2022-09-29T14:54:22;2.70;;;1.70;;
15936;SDS011;9163;48.818;8.976;2022-09-29T14:57:11;6.07;;;2.00;;
15936;SDS011;9163;48.818;8.976;2022-09-29T15:00:07;5.47;;;1.70;;
15936;SDS011;9163;48.818;8.976;2022-09-29T15:02:41;2.80;;;1.83;;
15936;SDS011;9163;48.818;8.976;2022-09-29T15:05:13;4.83;;;2.00;;
15936;SDS011;9163;48.818;8.976;2022-09-29T15:07:49;5.63;;;1.73;;
15936;SDS011;9163;48.818;8.976;2022-09-29T15:10:20;3.67;;;1.77;;
15936;SDS011;9163;48.818;8.976;2022-09-29T15:12:49;6.60;;;1.73;;
15936;SDS011;9163;48.818;8.976;2022-09-29T15:15:30;3.57;;;1.20;;
15936;SDS011;9163;48.818;8.976;2022-09-29T15:18:03;5.40;;;1.33;;
15936;SDS011;9163;48.818;8.976;2022-09-29T15:20:47;8.73;;;1.60;;
15936;SDS011;9163;48.818;8.976;2022-09-29T15:23:34;3.00;;;1.30;;
15936;SDS011;9163;48.818;8.976;2022-09-29T15:26:16;3.50;;;1.30;;
15936;SDS011;9163;48.818;8.976;2022-09-29T15:28:44;7.13;;;1.47;;
15936;SDS011;9163;48.818;8.976;2022-09-29T15:31:16;4.73;;;1.40;;
15936;SDS011;9163;48.818;8.976;2022-09-29T15:33:47;4.00;;;1.20;;
15936;SDS011;9163;48.818;8.976;2022-09-29T15:36:17;1.50;;;1.27;;
15936;SDS011;9163;48.818;8.976;2022-09-29T15:38:47;3.57;;;1.20;;
15936;SDS011;9163;48.818;8.976;2022-09-29T15:41:19;5.10;;;1.30;;
15936;SDS011;9163;48.818;8.976;2022-09-29T15:43:53;2.40;;;1.00;;
15936;SDS011;9163;48.818;8.976;2022-09-29T15:46:22;1.80;;;0.87;;
15936;SDS011;9163;48.818;8.976;2022-09-29T15:49:03;2.73;;;0.97;;
15936;SDS011;9163;48.818;8.976;2022-09-29T15:51:42;4.20;;;1.00;;
15936;SDS011;9163;48.818;8.976;2022-09-29T15:54:16;3.33;;;1.10;;
15936;SDS011;9163;48.818;8.976;2022-09-29T15:56:45;3.67;;;1.17;;
15936;SDS011;9163;48.818;8.976;2022-09-29T15:59:40;3.60;;;1.00;;